Time;durP1;ratioP1;P1;durP2;ratioP2;P2;SDS_P1;SDS_P2;PMS_P1;PMS_P2;Temp;Humidity;BMP_temperature;BMP_pressure;BME280_temperature;BME280_humidity;BME280_pressure;Samples;Min_cycle;Max_cycle;Signal;HPM_P1;HPM_P2
2023/04/05 00:01:25;;;;;;;12.63;7.43;;;4.50;99.90;;;;;;4991114;28;20222;-46
2023/04/05 00:03:53;;;;;;;12.98;7.65;;;4.50;99.90;;;;;;4983033;28;20670;-46
2023/04/05 00:06:25;;;;;;;11.60;7.00;;;4.50;99.90;;;;;;4972061;28;20197;-47
2023/04/05 00:08:54;;;;;;;15.35;8.23;;;4.50;99.90;;;;;;4970396;28;20228;-46
2023/04/05 00:11:21;;;;;;;16.42;8.60;;;4.40;99.90;;;;;;4972116;28;20174;-46
2023/04/05 00:13:47;;;;;;;12.82;7.65;;;4.40;99.90;;;;;;4978085;28;20684;-46
2023/04/05 00:16:13;;;;;;;8.93;5.65;;;4.40;99.90;;;;;;4989394;28;20267;-49
2023/04/05 00:18:44;;;;;;;12.18;5.53;;;4.40;99.90;;;;;;4990681;28;20567;-47
2023/04/05 00:21:13;;;;;;;10.25;5.70;;;4.40;99.90;;;;;;4990908;28;20208;-47
2023/04/05 00:23:40;;;;;;;6.82;4.57;;;;;;;;;;4985379;28;20198;-49
2023/04/05 00:26:06;;;;;;;11.43;5.63;;;4.30;99.90;;;;;;4990659;28;20179;-46
2023/04/05 00:28:31;;;;;;;10.10;5.10;;;4.30;99.90;;;;;;4990521;28;20226;-46
2023/04/05 00:30:57;;;;;;;6.60;4.47;;;4.30;99.90;;;;;;4990489;28;20564;-47
2023/04/05 00:33:23;;;;;;;8.75;4.88;;;4.30;99.90;;;;;;4973123;28;20715;-46
2023/04/05 00:35:48;;;;;;;10.32;5.80;;;4.30;99.90;;;;;;4971430;28;20226;-47
2023/04/05 00:38:14;;;;;;;12.05;5.97;;;4.30;99.90;;;;;;4970988;28;20645;-47
2023/04/05 00:40:40;;;;;;;13.60;6.97;;;;;;;;;;4971033;28;20176;-46
2023/04/05 00:43:05;;;;;;;14.45;7.10;;;4.30;99.90;;;;;;4984435;28;20256;-47
2023/04/05 00:45:31;;;;;;;12.25;7.20;;;;;;;;;;4990437;28;20176;-46
2023/04/05 00:47:57;;;;;;;11.73;6.43;;;4.30;99.90;;;;;;4990475;28;20169;-47
2023/04/05 00:50:23;;;;;;;13.55;6.63;;;4.30;99.90;;;;;;4990320;28;20188;-45
2023/04/05 00:52:49;;;;;;;8.70;5.35;;;4.30;99.90;;;;;;4979161;28;20759;-46
2023/04/05 00:55:16;;;;;;;12.32;6.55;;;4.20;99.90;;;;;;4970649;28;20209;-43
2023/04/05 00:57:44;;;;;;;8.38;5.25;;;4.10;99.90;;;;;;4970951;28;20174;-46
2023/04/05 01:00:10;;;;;;;8.40;5.43;;;4.10;99.90;;;;;;4969837;28;20525;-47
2023/04/05 01:02:44;;;;;;;8.27;5.07;;;4.00;99.90;;;;;;4979989;28;20259;-43
2023/04/05 01:05:33;;;;;;;7.82;4.90;;;3.90;99.90;;;;;;4990052;28;20185;-43
2023/04/05 01:08:21;;;;;;;8.35;5.20;;;3.90;99.90;;;;;;4990080;28;20212;-44
2023/04/05 01:10:53;;;;;;;11.13;5.50;;;4.00;99.90;;;;;;4990049;28;20196;-44
2023/04/05 01:13:19;;;;;;;8.30;5.70;;;;;;;;;;4975162;28;20173;-43
2023/04/05 01:15:45;;;;;;;10.25;5.22;;;4.00;99.90;;;;;;4970505;28;20544;-43
2023/04/05 01:18:12;;;;;;;12.25;5.38;;;4.00;99.90;;;;;;4970457;28;20298;-43
2023/04/05 01:20:45;;;;;;;8.20;5.20;;;4.10;99.90;;;;;;4976421;28;20314;-43
2023/04/05 01:23:36;;;;;;;7.90;5.25;;;4.10;99.90;;;;;;4989811;28;20165;-43
2023/04/05 01:26:36;;;;;;;8.52;5.78;;;4.20;99.90;;;;;;4990028;28;20181;-43
2023/04/05 01:29:23;;;;;;;9.23;5.05;;;4.00;99.90;;;;;;4989806;28;20217;-43
2023/04/05 01:32:10;;;;;;;7.93;4.70;;;3.90;99.90;;;;;;4988634;28;20256;-42
2023/04/05 01:34:58;;;;;;;6.70;4.78;;;3.90;99.90;;;;;;4951031;28;20229;-43
2023/04/05 01:37:29;;;;;;;6.60;4.38;;;3.90;99.90;;;;;;4950906;28;20208;-43
2023/04/05 01:39:55;;;;;;;9.27;5.25;;;3.90;99.90;;;;;;4951281;28;20212;-42
2023/04/05 01:42:25;;;;;;;7.50;5.00;;;;;;;;;;4989986;28;20173;-43
2023/04/05 01:44:52;;;;;;;9.50;5.63;;;;;;;;;;4989904;28;20571;-43
2023/04/05 01:47:19;;;;;;;12.13;5.45;;;4.00;99.90;;;;;;4989891;28;20188;-42
2023/04/05 01:49:44;;;;;;;10.02;5.32;;;4.10;99.90;;;;;;4989683;28;20525;-43
2023/04/05 01:52:10;;;;;;;8.57;6.13;;;4.20;99.90;;;;;;4971091;28;20177;-43
2023/04/05 01:54:36;;;;;;;10.07;5.63;;;;;;;;;;4969936;28;20209;-43
2023/04/05 01:57:01;;;;;;;10.02;5.25;;;4.30;99.90;;;;;;4970944;28;20173;-42
2023/04/05 01:59:27;;;;;;;10.23;6.00;;;4.20;99.90;;;;;;4969877;28;20223;-43
2023/04/05 02:01:53;;;;;;;8.90;5.50;;;4.30;99.90;;;;;;4970004;28;20181;-43
2023/04/05 02:04:18;;;;;;;8.25;4.80;;;4.30;99.90;;;;;;4970136;28;20251;-43
2023/04/05 02:06:44;;;;;;;7.85;5.18;;;;;;;;;;4971207;28;20197;-43
2023/04/05 02:09:10;;;;;;;8.07;5.35;;;4.40;99.90;;;;;;4988928;28;20225;-45
2023/04/05 02:11:35;;;;;;;7.25;5.53;;;4.40;99.90;;;;;;4988806;28;20169;-43
2023/04/05 02:14:01;;;;;;;11.82;5.60;;;4.40;99.90;;;;;;4989045;28;20196;-43
2023/04/05 02:16:27;;;;;;;10.23;4.95;;;;;;;;;;4989024;28;20245;-45
2023/04/05 02:18:56;;;;;;;7.00;4.35;;;3.90;99.90;;;;;;4970214;28;20257;-43
2023/04/05 02:21:22;;;;;;;9.07;4.68;;;4.00;99.90;;;;;;4969820;28;20523;-43
2023/04/05 02:23:48;;;;;;;7.53;5.00;;;4.00;99.90;;;;;;4970185;28;20173;-43
2023/04/05 02:26:14;;;;;;;9.57;5.65;;;;;;;;;;4969528;28;20219;-43
2023/04/05 02:28:40;;;;;;;8.35;5.20;;;3.90;99.90;;;;;;4985846;28;20188;-43
2023/04/05 02:31:12;;;;;;;8.40;4.68;;;3.90;99.90;;;;;;4988829;28;20548;-42
2023/04/05 02:33:39;;;;;;;6.80;4.93;;;4.00;99.90;;;;;;4988777;28;20180;-44
2023/04/05 02:36:06;;;;;;;8.55;4.97;;;4.00;99.90;;;;;;4988834;28;20297;-43
2023/04/05 02:38:32;;;;;;;9.75;5.75;;;3.90;99.90;;;;;;4973348;28;20264;-43
2023/04/05 02:40:58;;;;;;;10.75;5.18;;;4.00;99.90;;;;;;4969370;28;20170;-42
2023/04/05 02:43:24;;;;;;;10.43;5.55;;;4.00;99.90;;;;;;4969344;28;20181;-43
2023/04/05 02:45:50;;;;;;;10.95;4.97;;;4.00;99.90;;;;;;4969687;28;20248;-43
2023/04/05 02:48:16;;;;;;;8.43;5.18;;;4.00;99.90;;;;;;4981878;28;20176;-42
2023/04/05 02:50:45;;;;;;;8.73;5.00;;;3.90;99.90;;;;;;4988710;28;20260;-43
2023/04/05 02:53:11;;;;;;;9.05;5.40;;;3.80;99.90;;;;;;4988641;28;20521;-43
2023/04/05 02:55:40;;;;;;;9.02;5.10;;;3.80;99.90;;;;;;4988759;28;20204;-42
2023/04/05 02:58:07;;;;;;;9.70;5.68;;;3.90;99.90;;;;;;4976938;28;20170;-42
2023/04/05 03:00:32;;;;;;;9.95;5.28;;;3.90;99.90;;;;;;4968993;28;20253;-43
2023/04/05 03:02:58;;;;;;;11.95;5.28;;;3.90;99.90;;;;;;4969177;28;20689;-43
2023/04/05 03:05:24;;;;;;;10.82;5.13;;;3.90;99.90;;;;;;4969390;28;20190;-45
2023/04/05 03:07:51;;;;;;;8.55;4.93;;;;;;;;;;4977958;28;20200;-43
2023/04/05 03:10:17;;;;;;;9.23;5.05;;;3.80;99.90;;;;;;4989046;28;20263;-42
2023/04/05 03:12:46;;;;;;;8.63;4.97;;;3.60;99.90;;;;;;4988638;28;20165;-43
2023/04/05 03:15:12;;;;;;;6.90;4.57;;;3.60;99.90;;;;;;4988312;28;20200;-43
2023/04/05 03:17:37;;;;;;;10.48;5.35;;;3.60;99.90;;;;;;4981061;28;20234;-43
2023/04/05 03:20:08;;;;;;;6.70;4.70;;;3.60;99.90;;;;;;4969003;28;20202;-43
2023/04/05 03:22:33;;;;;;;7.90;4.63;;;3.50;99.90;;;;;;4968995;28;20162;-42
2023/04/05 03:24:59;;;;;;;9.75;4.90;;;3.50;99.90;;;;;;4971948;28;20185;-43
2023/04/05 03:27:26;;;;;;;8.40;4.97;;;;;;;;;;4976777;28;20200;-43
2023/04/05 03:29:52;;;;;;;6.47;4.85;;;;;;;;;;4991491;28;20545;-44
2023/04/05 03:32:17;;;;;;;6.90;5.07;;;3.50;99.90;;;;;;4991823;28;20173;-43
2023/04/05 03:34:43;;;;;;;9.75;4.95;;;3.50;99.90;;;;;;5007137;28;20217;-42
2023/04/05 03:37:08;;;;;;;6.78;4.88;;;3.50;99.90;;;;;;5060121;28;20242;-42
2023/04/05 03:39:35;;;;;;;8.57;5.43;;;3.50;99.90;;;;;;4991112;28;20190;-43
2023/04/05 03:42:01;;;;;;;10.38;5.07;;;3.50;99.90;;;;;;4990930;28;20272;-42
2023/04/05 03:44:26;;;;;;;6.28;4.60;;;3.50;99.90;;;;;;4991216;28;20256;-43
2023/04/05 03:46:52;;;;;;;8.38;5.25;;;;;;;;;;4989994;28;20169;-42
2023/04/05 03:49:18;;;;;;;11.63;4.97;;;3.40;99.90;;;;;;4952732;28;20178;-43
2023/04/05 03:51:45;;;;;;;7.35;5.50;;;;;;;;;;4952385;28;20625;-43
2023/04/05 03:54:11;;;;;;;9.57;5.63;;;3.30;99.90;;;;;;4952340;28;20194;-43
2023/04/05 03:56:36;;;;;;;11.75;5.35;;;3.30;99.90;;;;;;4952248;28;20181;-43
2023/04/05 03:59:02;;;;;;;10.93;6.00;;;3.30;99.90;;;;;;4986927;28;20259;-44
2023/04/05 04:01:29;;;;;;;9.25;5.78;;;3.40;99.90;;;;;;4990848;28;20245;-43
2023/04/05 04:03:55;;;;;;;8.82;5.78;;;;;;;;;;4990987;28;20558;-42
2023/04/05 04:06:21;;;;;;;11.00;5.95;;;;;;;;;;4991096;28;20177;-43
2023/04/05 04:08:47;;;;;;;10.40;5.50;;;3.20;99.90;;;;;;4975771;28;20723;-42
2023/04/05 04:11:12;;;;;;;11.43;6.15;;;3.20;99.90;;;;;;4971506;28;20230;-44
2023/04/05 04:13:38;;;;;;;7.65;6.20;;;3.10;99.90;;;;;;4971510;28;20181;-44
2023/04/05 04:16:04;;;;;;;8.52;5.53;;;3.20;99.90;;;;;;4971366;28;20248;-45
2023/04/05 04:18:30;;;;;;;13.45;7.07;;;;;;;;;;4983690;28;20303;-46
2023/04/05 04:20:57;;;;;;;12.95;6.32;;;3.10;99.90;;;;;;4990725;28;20179;-45
2023/04/05 04:23:23;;;;;;;10.40;6.65;;;3.10;99.90;;;;;;4990712;28;20188;-43
2023/04/05 04:25:53;;;;;;;13.52;6.85;;;3.00;99.90;;;;;;4991239;28;20169;-44
2023/04/05 04:28:20;;;;;;;12.40;7.03;;;3.10;99.90;;;;;;4990367;28;20314;-44
2023/04/05 04:30:45;;;;;;;9.60;5.53;;;3.00;99.90;;;;;;4990247;28;20177;-46
2023/04/05 04:33:11;;;;;;;9.65;5.90;;;2.90;99.90;;;;;;4990317;28;20178;-45
2023/04/05 04:35:37;;;;;;;12.50;6.72;;;2.90;99.90;;;;;;4990264;28;20761;-46
2023/04/05 04:38:07;;;;;;;11.82;6.80;;;2.90;99.90;;;;;;4981661;28;20197;-42
2023/04/05 04:40:40;;;;;;;14.65;7.72;;;2.90;99.90;;;;;;4971215;28;20177;-47
2023/04/05 04:43:13;;;;;;;13.98;7.13;;;2.90;99.90;;;;;;4970938;28;20269;-43
2023/04/05 04:45:40;;;;;;;11.75;6.55;;;2.90;99.90;;;;;;4970848;28;20641;-43
2023/04/05 04:48:07;;;;;;;10.90;7.10;;;2.90;99.90;;;;;;4979397;28;20173;-43
2023/04/05 04:50:32;;;;;;;10.80;6.10;;;2.90;99.90;;;;;;4990366;28;20173;-43
2023/04/05 04:52:59;;;;;;;12.00;6.38;;;2.90;99.90;;;;;;4990385;28;20177;-42
2023/04/05 04:55:26;;;;;;;15.73;9.00;;;2.90;99.90;;;;;;4990088;28;20216;-42
2023/04/05 04:57:52;;;;;;;19.13;8.70;;;2.90;99.90;;;;;;4982521;28;20588;-42
2023/04/05 05:00:19;;;;;;;10.23;6.50;;;2.80;99.90;;;;;;4971512;28;20243;-42
2023/04/05 05:02:45;;;;;;;9.27;6.15;;;2.70;99.90;;;;;;4971332;28;20181;-43
2023/04/05 05:05:12;;;;;;;13.32;5.38;;;2.70;99.90;;;;;;4971013;28;20165;-43
2023/04/05 05:07:40;;;;;;;11.23;5.93;;;2.50;99.90;;;;;;4974993;28;20234;-42
2023/04/05 05:10:07;;;;;;;10.88;5.97;;;2.50;99.90;;;;;;4989585;28;20165;-43
2023/04/05 05:12:33;;;;;;;9.60;5.60;;;;;;;;;;4974951;28;20212;-43
2023/04/05 05:14:59;;;;;;;8.60;5.05;;;2.60;99.90;;;;;;4970873;28;20248;-44
2023/04/05 05:17:24;;;;;;;8.68;5.28;;;2.60;99.90;;;;;;4973288;28;20185;-43
2023/04/05 05:19:50;;;;;;;12.75;6.32;;;2.60;99.90;;;;;;4990303;28;20221;-43
2023/04/05 05:22:16;;;;;;;7.63;5.40;;;2.60;99.90;;;;;;4990595;28;20164;-44
2023/04/05 05:24:43;;;;;;;8.45;6.13;;;2.60;99.90;;;;;;4990201;28;20165;-43
2023/04/05 05:27:09;;;;;;;14.90;7.75;;;2.60;99.90;;;;;;4989726;28;20165;-42
2023/04/05 05:29:35;;;;;;;13.95;7.57;;;;;;;;;;4951645;28;20193;-43
2023/04/05 05:32:01;;;;;;;10.35;6.90;;;2.70;99.90;;;;;;4951707;28;20170;-43
2023/04/05 05:34:26;;;;;;;11.25;6.60;;;2.80;99.90;;;;;;4951174;28;20288;-42
2023/04/05 05:36:53;;;;;;;11.13;7.05;;;2.80;99.90;;;;;;4972725;28;20532;-43
2023/04/05 05:39:20;;;;;;;10.63;5.82;;;;;;;;;;4977766;28;20238;-41
2023/04/05 05:41:45;;;;;;;13.25;6.30;;;2.90;99.90;;;;;;4984769;28;20849;-42
2023/04/05 05:44:11;;;;;;;9.20;6.38;;;;;;;;;;4988501;28;20259;-43
2023/04/05 05:46:39;;;;;;;9.88;5.63;;;3.00;99.90;;;;;;4983617;28;20611;-43
2023/04/05 05:49:05;;;;;;;9.70;5.60;;;;;;;;;;4968720;28;20710;-43
2023/04/05 05:51:31;;;;;;;12.02;5.82;;;3.10;99.90;;;;;;4969101;28;20695;-43
2023/04/05 05:53:57;;;;;;;7.60;5.45;;;3.10;99.90;;;;;;4992300;28;20204;-44
2023/04/05 05:56:22;;;;;;;10.55;6.00;;;3.10;99.90;;;;;;5042024;28;20191;-43
2023/04/05 05:58:48;;;;;;;6.57;4.85;;;;;;;;;;4988573;28;20242;-43
2023/04/05 06:01:14;;;;;;;8.27;5.20;;;3.20;99.90;;;;;;4988159;28;20208;-44
2023/04/05 06:03:39;;;;;;;9.63;5.50;;;3.30;99.90;;;;;;4988055;28;20165;-43
2023/04/05 06:06:07;;;;;;;10.98;5.90;;;3.30;99.90;;;;;;4984312;28;20207;-43
2023/04/05 06:08:33;;;;;;;8.07;5.45;;;3.40;99.90;;;;;;4975155;28;20588;-43
2023/04/05 06:10:59;;;;;;;12.90;6.50;;;;;;;;;;4982420;28;20169;-39
2023/04/05 06:13:25;;;;;;;9.85;6.63;;;;;;;;;;4985407;28;20199;-46
2023/04/05 06:15:50;;;;;;;11.07;6.25;;;3.60;99.90;;;;;;4986375;28;20672;-42
2023/04/05 06:18:16;;;;;;;12.68;6.43;;;;;;;;;;4968850;28;20216;-42
2023/04/05 06:20:43;;;;;;;11.23;7.25;;;3.70;99.90;;;;;;4968933;28;20173;-42
2023/04/05 06:23:11;;;;;;;14.75;7.85;;;3.80;99.90;;;;;;5018494;28;20201;-44
2023/04/05 06:25:37;;;;;;;10.77;6.57;;;;;;;;;;5013638;28;20200;-42
2023/04/05 06:28:04;;;;;;;13.50;7.85;;;4.00;99.90;;;;;;4987854;28;20200;-44
2023/04/05 06:30:30;;;;;;;9.45;6.55;;;;;;;;;;4988243;28;20177;-44
2023/04/05 06:32:56;;;;;;;18.40;7.05;;;4.10;99.90;;;;;;4987853;28;20172;-42
2023/04/05 06:35:22;;;;;;;10.48;6.05;;;;;;;;;;5001039;28;20288;-42
2023/04/05 06:37:47;;;;;;;13.90;6.63;;;4.30;99.90;;;;;;4976424;28;20180;-46
2023/04/05 06:40:14;;;;;;;11.23;6.18;;;4.30;99.90;;;;;;4987847;28;20173;-42
2023/04/05 06:42:39;;;;;;;12.00;6.47;;;4.50;99.90;;;;;;4987632;28;20754;-43
2023/04/05 06:45:06;;;;;;;9.93;6.10;;;4.50;99.90;;;;;;4971791;28;20315;-43
2023/04/05 06:47:38;;;;;;;10.75;5.93;;;4.60;99.90;;;;;;4968640;28;20216;-45
2023/04/05 06:50:06;;;;;;;10.75;6.53;;;4.80;99.90;;;;;;4970300;28;20226;-46
2023/04/05 06:52:32;;;;;;;9.52;6.55;;;4.70;99.90;;;;;;4987559;28;20173;-45
2023/04/05 06:54:58;;;;;;;8.88;6.43;;;4.70;99.90;;;;;;4987565;28;20258;-45
2023/04/05 06:57:23;;;;;;;9.88;6.32;;;4.80;99.90;;;;;;4950431;28;20259;-43
2023/04/05 06:59:51;;;;;;;10.85;6.22;;;4.80;99.90;;;;;;4950641;28;20170;-43
2023/04/05 07:02:17;;;;;;;16.33;7.55;;;4.80;99.90;;;;;;4952806;28;20173;-45
2023/04/05 07:04:43;;;;;;;11.23;6.38;;;;;;;;;;4952175;28;20166;-42
2023/04/05 07:07:09;;;;;;;11.38;6.63;;;5.10;99.90;;;;;;4957873;28;20165;-46
2023/04/05 07:09:35;;;;;;;10.23;5.80;;;;;;;;;;4971237;28;20221;-46
2023/04/05 07:12:03;;;;;;;9.68;6.60;;;5.20;99.90;;;;;;4971516;28;20513;-44
2023/04/05 07:14:29;;;;;;;11.25;6.50;;;5.30;99.90;;;;;;4971174;28;20229;-46
2023/04/05 07:16:55;;;;;;;14.20;8.50;;;;;;;;;;4972450;28;20174;-45
2023/04/05 07:19:21;;;;;;;11.65;7.20;;;;;;;;;;4990668;28;20161;-44
2023/04/05 07:21:48;;;;;;;19.00;8.18;;;5.50;99.90;;;;;;4991042;28;20186;-44
2023/04/05 07:24:13;;;;;;;19.52;10.23;;;5.50;99.90;;;;;;4990790;28;20176;-44
2023/04/05 07:26:39;;;;;;;9.27;7.00;;;5.70;99.90;;;;;;4986183;28;20168;-46
2023/04/05 07:29:06;;;;;;;12.05;8.63;;;5.70;99.90;;;;;;4990213;28;20736;-46
2023/04/05 07:31:31;;;;;;;12.48;6.57;;;5.80;99.90;;;;;;4990616;28;20184;-44
2023/04/05 07:33:58;;;;;;;12.07;6.72;;;5.90;99.90;;;;;;4979999;28;20205;-46
2023/04/05 07:36:26;;;;;;;9.73;6.63;;;;;;;;;;4974031;28;20197;-45
2023/04/05 07:38:55;;;;;;;28.52;14.88;;;6.00;99.90;;;;;;4970795;28;20637;-47
2023/04/05 07:41:22;;;;;;;22.95;10.35;;;6.10;99.90;;;;;;4971137;28;20261;-52
2023/04/05 07:43:48;;;;;;;16.42;9.60;;;6.00;99.90;;;;;;4971105;28;20875;-46
2023/04/05 07:46:13;;;;;;;34.45;16.05;;;5.90;99.90;;;;;;4970884;28;20173;-47
2023/04/05 07:48:39;;;;;;;15.70;8.75;;;;;;;;;;4970611;28;20178;-46
2023/04/05 07:51:07;;;;;;;12.63;6.88;;;6.30;99.90;;;;;;4970433;28;20173;-45
2023/04/05 07:53:33;;;;;;;12.20;6.70;;;6.40;99.90;;;;;;4970271;28;20173;-46
2023/04/05 07:56:03;;;;;;;12.32;7.10;;;6.40;99.90;;;;;;4980972;28;20210;-45
2023/04/05 07:58:29;;;;;;;8.48;6.32;;;;;;;;;;4989643;28;20199;-47
2023/04/05 08:00:59;;;;;;;11.98;6.25;;;6.70;99.90;;;;;;4989333;28;20184;-45
2023/04/05 08:03:26;;;;;;;10.93;6.22;;;;;;;;;;4989413;28;20625;-45
2023/04/05 08:05:51;;;;;;;13.07;7.30;;;6.80;99.90;;;;;;4981497;28;20177;-45
2023/04/05 08:08:17;;;;;;;12.20;6.47;;;;;;;;;;4970380;28;20213;-45
2023/04/05 08:10:44;;;;;;;11.52;6.70;;;;;;;;;;4969313;28;20630;-46
2023/04/05 08:13:09;;;;;;;10.70;6.72;;;7.10;99.90;;;;;;4969971;28;20165;-45
2023/04/05 08:15:35;;;;;;;9.38;6.65;;;;;;;;;;4974820;28;20273;-47
2023/04/05 08:18:01;;;;;;;11.68;7.22;;;7.40;99.90;;;;;;4989540;28;20251;-47
2023/04/05 08:20:26;;;;;;;11.43;6.82;;;7.40;99.90;;;;;;4983742;28;20277;-45
2023/04/05 08:22:52;;;;;;;10.30;7.10;;;7.60;99.90;;;;;;4969277;28;20248;-47
2023/04/05 08:25:18;;;;;;;13.32;7.28;;;;;;;;;;4972423;28;20181;-47
2023/04/05 08:27:44;;;;;;;9.25;6.32;;;;;;;;;;4969899;28;20178;-45
2023/04/05 08:30:11;;;;;;;12.02;7.15;;;;;;;;;;4981075;28;20659;-45
2023/04/05 08:32:37;;;;;;;11.80;7.07;;;;;;;;;;4988962;28;20226;-47
2023/04/05 08:35:02;;;;;;;9.43;6.65;;;8.20;99.90;;;;;;4987782;28;20209;-48
2023/04/05 08:37:28;;;;;;;11.43;7.55;;;8.30;99.90;;;;;;4969264;28;20172;-48
2023/04/05 08:39:54;;;;;;;18.67;11.88;;;8.30;99.90;;;;;;4969923;28;20185;-48
2023/04/05 08:42:31;;;;;;;12.55;7.70;;;8.30;99.90;;;;;;4970226;28;20162;-47
2023/04/05 08:44:58;;;;;;;19.85;7.43;;;8.40;99.90;;;;;;4969351;28;20176;-47
2023/04/05 08:47:24;;;;;;;13.20;7.68;;;;;;;;;;4950387;28;20594;-45
2023/04/05 08:49:50;;;;;;;14.43;7.55;;;8.50;99.90;;;;;;4950431;28;20162;-47
2023/04/05 08:52:17;;;;;;;11.52;6.95;;;8.40;99.90;;;;;;4950515;28;20630;-47
2023/04/05 08:54:43;;;;;;;11.85;7.15;;;;;;;;;;4970848;28;20217;-45
2023/04/05 08:57:09;;;;;;;11.07;7.15;;;8.70;99.90;;;;;;4988820;28;20176;-47
2023/04/05 08:59:41;;;;;;;10.90;6.97;;;;;;;;;;4988678;28;20540;-48
2023/04/05 09:02:21;;;;;;;11.77;6.40;;;9.00;99.90;;;;;;4988706;28;20184;-44
2023/04/05 09:04:47;;;;;;;14.73;7.38;;;9.30;99.90;;;;;;4976584;28;20189;-44
2023/04/05 09:07:13;;;;;;;11.52;7.28;;;9.30;99.90;;;;;;4969200;28;20170;-44
2023/04/05 09:09:43;;;;;;;16.00;7.88;;;9.00;99.90;;;;;;4969287;28;20247;-44
2023/04/05 09:12:09;;;;;;;15.63;6.60;;;;;;;;;;4969307;28;20169;-43
2023/04/05 09:14:36;;;;;;;11.02;7.00;;;9.20;99.90;;;;;;4968038;28;20228;-44
2023/04/05 09:17:03;;;;;;;9.40;6.63;;;9.20;99.90;;;;;;4968068;28;20166;-42
2023/04/05 09:19:29;;;;;;;9.82;6.50;;;9.20;99.90;;;;;;5011505;28;20284;-44
2023/04/05 09:21:59;;;;;;;10.73;6.70;;;9.40;99.90;;;;;;5069659;28;20614;-45
2023/04/05 09:24:35;;;;;;;10.90;6.45;;;9.40;99.90;;;;;;5026102;28;20185;-45
2023/04/05 09:27:10;;;;;;;13.77;7.00;;;9.60;99.90;;;;;;4968925;28;20180;-46
2023/04/05 09:29:36;;;;;;;11.88;6.35;;;9.80;99.90;;;;;;4968878;28;20628;-45
2023/04/05 09:32:03;;;;;;;10.43;6.45;;;9.80;99.90;;;;;;4968794;28;20180;-45
2023/04/05 09:34:32;;;;;;;10.07;6.57;;;9.90;99.60;;;;;;4968932;28;20205;-45
2023/04/05 09:36:59;;;;;;;8.55;6.45;;;;;;;;;;4969110;28;20173;-44
2023/04/05 09:39:32;;;;;;;13.57;6.63;;;9.90;99.50;;;;;;4968960;28;20205;-44
2023/04/05 09:42:14;;;;;;;7.82;5.90;;;10.00;99.30;;;;;;4970079;28;20193;-43
2023/04/05 09:45:00;;;;;;;7.53;6.05;;;10.00;99.10;;;;;;4988276;28;20686;-44
2023/04/05 09:47:31;;;;;;;8.30;6.47;;;10.00;97.50;;;;;;4987944;28;20172;-42
2023/04/05 09:49:57;;;;;;;10.48;6.07;;;10.10;97.50;;;;;;4988287;28;20173;-44
2023/04/05 09:52:32;;;;;;;7.60;6.32;;;10.20;97.60;;;;;;4983401;28;20211;-45
2023/04/05 09:55:00;;;;;;;8.45;6.38;;;10.40;96.90;;;;;;4968543;28;20208;-46
2023/04/05 09:57:26;;;;;;;10.90;6.97;;;10.20;95.40;;;;;;4968521;28;20173;-42
2023/04/05 09:59:53;;;;;;;12.35;6.88;;;10.20;95.10;;;;;;4967359;28;20264;-43
2023/04/05 10:02:19;;;;;;;10.85;6.97;;;;;;;;;;4969195;28;20311;-45
2023/04/05 10:04:47;;;;;;;12.63;7.45;;;10.70;94.40;;;;;;4968987;28;20173;-41
2023/04/05 10:07:14;;;;;;;11.98;7.00;;;11.00;94.30;;;;;;4968734;28;20224;-43
2023/04/05 10:09:41;;;;;;;10.02;6.28;;;;;;;;;;4968173;28;20275;-43
2023/04/05 10:12:08;;;;;;;9.13;7.60;;;10.90;95.70;;;;;;4967709;28;20177;-43
2023/04/05 10:14:38;;;;;;;11.02;7.28;;;10.70;94.10;;;;;;4968273;28;20747;-44
2023/04/05 10:17:09;;;;;;;8.85;7.40;;;11.00;95.60;;;;;;4968709;28;20196;-44
2023/04/05 10:20:01;;;;;;;9.82;6.68;;;11.00;94.40;;;;;;4968505;28;20212;-44
2023/04/05 10:22:40;;;;;;;8.48;6.60;;;10.80;93.90;;;;;;4972589;28;20521;-44
2023/04/05 10:25:33;;;;;;;10.40;6.93;;;11.00;94.40;;;;;;4987533;28;20205;-43
2023/04/05 10:28:41;;;;;;;9.68;7.53;;;11.20;94.60;;;;;;4987502;28;20644;-43
2023/04/05 10:31:30;;;;;;;11.20;7.45;;;11.40;92.70;;;;;;4988008;28;20954;-43
2023/04/05 10:34:07;;;;;;;16.55;8.90;;;11.60;94.10;;;;;;4990528;28;20230;-43
2023/04/05 10:37:02;;;;;;;13.88;7.45;;;11.40;91.30;;;;;;4991527;28;20180;-43
2023/04/05 10:39:29;;;;;;;14.40;8.13;;;;;;;;;;4991483;28;20233;-43
2023/04/05 10:42:08;;;;;;;14.93;8.77;;;11.20;87.30;;;;;;4978208;28;20175;-44
2023/04/05 10:44:36;;;;;;;10.65;6.97;;;11.60;89.30;;;;;;4971683;28;20181;-43
2023/04/05 10:47:04;;;;;;;9.63;6.50;;;11.70;87.30;;;;;;4970583;28;20649;-43
2023/04/05 10:49:41;;;;;;;15.10;10.73;;;11.60;87.10;;;;;;4972038;28;20188;-45
2023/04/05 10:52:08;;;;;;;12.00;7.97;;;12.00;90.00;;;;;;4970842;28;20555;-43
2023/04/05 10:54:35;;;;;;;8.73;6.63;;;11.70;87.10;;;;;;4971539;28;20205;-46
2023/04/05 10:57:08;;;;;;;6.72;5.93;;;11.90;87.80;;;;;;4971838;28;20226;-44
2023/04/05 10:59:35;;;;;;;9.15;6.40;;;12.00;86.60;;;;;;4971686;28;20633;-46
2023/04/05 11:02:02;;;;;;;8.13;6.43;;;11.80;84.10;;;;;;4984357;28;20188;-45
2023/04/05 11:04:28;;;;;;;12.30;6.55;;;;;;;;;;4990876;28;20176;-44
2023/04/05 11:07:15;;;;;;;10.35;7.57;;;12.30;84.80;;;;;;4989515;28;20230;-46
2023/04/05 11:10:14;;;;;;;11.48;6.53;;;12.40;85.80;;;;;;4990726;28;20294;-45
2023/04/05 11:12:49;;;;;;;10.32;6.75;;;11.80;87.20;;;;;;4972027;28;20209;-45
2023/04/05 11:15:26;;;;;;;9.55;7.35;;;11.90;89.70;;;;;;4971639;28;20215;-44
2023/04/05 11:18:11;;;;;;;11.32;7.43;;;12.00;88.60;;;;;;4971393;28;20200;-44
2023/04/05 11:21:05;;;;;;;9.32;7.18;;;12.00;87.40;;;;;;4974862;28;20184;-46
2023/04/05 11:23:31;;;;;;;14.85;7.70;;;12.20;88.30;;;;;;4990584;28;20214;-44
2023/04/05 11:26:04;;;;;;;9.95;6.90;;;12.30;88.00;;;;;;4990869;28;20173;-46
2023/04/05 11:28:36;;;;;;;10.27;7.55;;;12.10;86.30;;;;;;4990609;28;20238;-47
2023/04/05 11:31:17;;;;;;;11.13;7.97;;;11.60;86.40;;;;;;4983592;28;20176;-45
2023/04/05 11:34:10;;;;;;;10.48;6.78;;;11.20;87.20;;;;;;4971333;28;20181;-45
2023/04/05 11:36:44;;;;;;;11.45;6.95;;;11.30;87.00;;;;;;4971222;28;20556;-43
2023/04/05 11:39:22;;;;;;;10.85;7.57;;;11.00;87.40;;;;;;4975560;28;20169;-43
2023/04/05 11:41:53;;;;;;;11.65;6.90;;;11.10;84.60;;;;;;4990693;28;20209;-43
2023/04/05 11:44:19;;;;;;;7.75;6.80;;;;;;;;;;4989965;28;20583;-43
2023/04/05 11:46:45;;;;;;;9.07;6.63;;;10.70;84.10;;;;;;4990592;28;20173;-44
2023/04/05 11:49:12;;;;;;;9.70;7.07;;;11.20;85.20;;;;;;4985302;28;20197;-43
2023/04/05 11:51:41;;;;;;;9.23;6.95;;;11.50;85.40;;;;;;4970703;28;20228;-43
2023/04/05 11:54:10;;;;;;;10.02;6.93;;;11.70;84.70;;;;;;4970776;28;20194;-43
2023/04/05 11:56:36;;;;;;;10.68;6.90;;;11.80;83.70;;;;;;4970624;28;20170;-45
2023/04/05 11:59:02;;;;;;;11.20;7.10;;;12.00;81.30;;;;;;4986584;28;20176;-43
2023/04/05 12:01:28;;;;;;;10.35;6.80;;;12.00;80.60;;;;;;4989960;28;20647;-43
2023/04/05 12:03:55;;;;;;;12.20;7.50;;;11.90;80.50;;;;;;4990038;28;20196;-43
2023/04/05 12:06:25;;;;;;;14.70;7.68;;;12.20;81.40;;;;;;4989944;28;20528;-42
2023/04/05 12:08:55;;;;;;;10.57;6.60;;;12.30;79.10;;;;;;4974944;28;20759;-43
2023/04/05 12:11:32;;;;;;;9.38;6.80;;;12.40;79.80;;;;;;4989651;28;20308;-42
2023/04/05 12:14:00;;;;;;;10.82;7.20;;;12.60;78.60;;;;;;4990035;28;20172;-42
2023/04/05 12:16:27;;;;;;;9.07;6.63;;;12.70;77.10;;;;;;4988440;28;20238;-42
2023/04/05 12:18:59;;;;;;;9.75;6.65;;;12.60;75.40;;;;;;4989458;28;20259;-42
2023/04/05 12:21:27;;;;;;;8.20;6.10;;;12.50;74.70;;;;;;4970509;28;20189;-42
2023/04/05 12:23:53;;;;;;;10.25;6.25;;;12.50;76.70;;;;;;4970392;28;20296;-42
2023/04/05 12:26:20;;;;;;;10.32;6.63;;;12.80;75.00;;;;;;4970168;28;20165;-42
2023/04/05 12:28:52;;;;;;;10.45;6.88;;;12.70;71.20;;;;;;4983831;28;20181;-43
2023/04/05 12:31:38;;;;;;;10.45;7.00;;;12.60;72.60;;;;;;4990239;28;20241;-42
2023/04/05 12:34:03;;;;;;;12.70;7.00;;;12.60;73.60;;;;;;4989404;28;20221;-42
2023/04/05 12:36:33;;;;;;;9.57;7.25;;;;;;;;;;4980573;28;20193;-42
2023/04/05 12:38:59;;;;;;;10.57;6.63;;;12.50;73.10;;;;;;4969990;28;20173;-42
2023/04/05 12:41:30;;;;;;;12.77;6.13;;;12.60;74.20;;;;;;4970158;28;20952;-42
2023/04/05 12:44:00;;;;;;;11.05;7.63;;;12.80;73.30;;;;;;4970104;28;20181;-43
2023/04/05 12:46:42;;;;;;;14.25;9.07;;;12.80;72.60;;;;;;4976109;28;20582;-42
2023/04/05 12:49:13;;;;;;;26.15;19.23;;;12.90;72.60;;;;;;4989215;28;20212;-42
2023/04/05 12:51:46;;;;;;;14.65;8.75;;;13.10;72.80;;;;;;4989328;28;20648;-42
2023/04/05 12:54:13;;;;;;;10.25;7.03;;;;;;;;;;4984909;28;20660;-42
2023/04/05 12:56:39;;;;;;;8.43;6.72;;;;;;;;;;4969697;28;20212;-43
2023/04/05 12:59:06;;;;;;;13.57;7.20;;;13.20;71.80;;;;;;4969727;28;20232;-43
2023/04/05 13:01:32;;;;;;;10.45;7.35;;;13.20;71.40;;;;;;4969940;28;20205;-44
2023/04/05 13:04:03;;;;;;;10.80;9.02;;;13.30;70.60;;;;;;4970072;28;20162;-42
2023/04/05 13:06:30;;;;;;;9.50;6.85;;;13.30;71.70;;;;;;4989170;28;20177;-42
2023/04/05 13:08:55;;;;;;;9.80;6.80;;;12.70;70.70;;;;;;4988988;28;20265;-43
2023/04/05 13:11:22;;;;;;;10.00;6.82;;;12.40;71.30;;;;;;4988892;28;20173;-42
2023/04/05 13:13:48;;;;;;;11.85;7.22;;;;;;;;;;4989310;28;20196;-42